sensor_id;sensor_type;location;lat;lon;timestamp;P1;durP1;ratioP1;P2;durP2;ratioP2
55078;SDS011;55187;49.496;6.010;2022-09-19T00:01:13;3.58;;;1.15;;
55078;SDS011;55187;49.496;6.010;2022-09-19T00:03:43;2.17;;;0.98;;
55078;SDS011;55187;49.496;6.010;2022-09-19T00:06:21;1.45;;;0.95;;
55078;SDS011;55187;49.496;6.010;2022-09-19T00:08:49;1.15;;;0.77;;
55078;SDS011;55187;49.496;6.010;2022-09-19T00:11:16;3.22;;;0.70;;
55078;SDS011;55187;49.496;6.010;2022-09-19T00:13:45;3.58;;;1.27;;
55078;SDS011;55187;49.496;6.010;2022-09-19T00:16:19;8.07;;;1.30;;
55078;SDS011;55187;49.496;6.010;2022-09-19T00:18:47;1.92;;;1.10;;
55078;SDS011;55187;49.496;6.010;2022-09-19T00:21:19;0.63;;;0.50;;
55078;SDS011;55187;49.496;6.010;2022-09-19T00:23:47;1.67;;;1.13;;
55078;SDS011;55187;49.496;6.010;2022-09-19T00:26:17;3.95;;;0.70;;
55078;SDS011;55187;49.496;6.010;2022-09-19T00:28:44;3.38;;;2.03;;
55078;SDS011;55187;49.496;6.010;2022-09-19T00:31:15;4.15;;;1.33;;
55078;SDS011;55187;49.496;6.010;2022-09-19T00:33:44;5.53;;;1.75;;
55078;SDS011;55187;49.496;6.010;2022-09-19T00:36:12;3.47;;;1.30;;
55078;SDS011;55187;49.496;6.010;2022-09-19T00:38:40;5.20;;;1.58;;
55078;SDS011;55187;49.496;6.010;2022-09-19T00:41:10;3.58;;;1.27;;
55078;SDS011;55187;49.496;6.010;2022-09-19T00:43:45;2.45;;;1.08;;
55078;SDS011;55187;49.496;6.010;2022-09-19T00:46:21;13.43;;;1.90;;
55078;SDS011;55187;49.496;6.010;2022-09-19T00:48:50;1.63;;;1.10;;
55078;SDS011;55187;49.496;6.010;2022-09-19T00:51:25;3.65;;;1.58;;
55078;SDS011;55187;49.496;6.010;2022-09-19T00:53:58;6.78;;;1.08;;
55078;SDS011;55187;49.496;6.010;2022-09-19T00:56:28;1.38;;;1.10;;
55078;SDS011;55187;49.496;6.010;2022-09-19T00:58:55;2.55;;;1.42;;
55078;SDS011;55187;49.496;6.010;2022-09-19T01:01:24;2.33;;;1.65;;
55078;SDS011;55187;49.496;6.010;2022-09-19T01:03:52;1.13;;;1.02;;
55078;SDS011;55187;49.496;6.010;2022-09-19T01:12:17;1.05;;;0.88;;
55078;SDS011;55187;49.496;6.010;2022-09-19T01:15:13;2.15;;;1.15;;
55078;SDS011;55187;49.496;6.010;2022-09-19T01:17:58;2.70;;;1.08;;
55078;SDS011;55187;49.496;6.010;2022-09-19T01:23:27;2.55;;;1.20;;
55078;SDS011;55187;49.496;6.010;2022-09-19T01:26:22;3.78;;;1.00;;
55078;SDS011;55187;49.496;6.010;2022-09-19T01:29:07;1.67;;;1.15;;
55078;SDS011;55187;49.496;6.010;2022-09-19T01:31:41;3.53;;;1.60;;
55078;SDS011;55187;49.496;6.010;2022-09-19T01:37:00;3.30;;;1.83;;
55078;SDS011;55187;49.496;6.010;2022-09-19T01:39:41;9.05;;;1.63;;
55078;SDS011;55187;49.496;6.010;2022-09-19T01:42:13;10.80;;;1.77;;
55078;SDS011;55187;49.496;6.010;2022-09-19T01:44:40;4.93;;;2.30;;
55078;SDS011;55187;49.496;6.010;2022-09-19T01:47:19;2.42;;;1.58;;
55078;SDS011;55187;49.496;6.010;2022-09-19T01:50:08;3.53;;;1.98;;
55078;SDS011;55187;49.496;6.010;2022-09-19T01:55:50;4.65;;;2.15;;
55078;SDS011;55187;49.496;6.010;2022-09-19T01:58:43;5.65;;;1.20;;
55078;SDS011;55187;49.496;6.010;2022-09-19T02:01:19;4.38;;;1.88;;
55078;SDS011;55187;49.496;6.010;2022-09-19T02:03:57;3.45;;;2.13;;
55078;SDS011;55187;49.496;6.010;2022-09-19T02:06:40;3.97;;;2.53;;
55078;SDS011;55187;49.496;6.010;2022-09-19T02:09:26;6.97;;;3.28;;
55078;SDS011;55187;49.496;6.010;2022-09-19T02:12:02;4.85;;;2.15;;
55078;SDS011;55187;49.496;6.010;2022-09-19T02:14:34;5.03;;;2.33;;
55078;SDS011;55187;49.496;6.010;2022-09-19T02:17:04;1.77;;;1.17;;
55078;SDS011;55187;49.496;6.010;2022-09-19T02:19:45;4.35;;;2.28;;
55078;SDS011;55187;49.496;6.010;2022-09-19T02:22:19;4.25;;;2.08;;
55078;SDS011;55187;49.496;6.010;2022-09-19T02:24:50;4.57;;;2.47;;
55078;SDS011;55187;49.496;6.010;2022-09-19T02:27:23;2.55;;;1.70;;
55078;SDS011;55187;49.496;6.010;2022-09-19T02:30:00;3.22;;;1.60;;
55078;SDS011;55187;49.496;6.010;2022-09-19T02:32:33;2.80;;;1.73;;
55078;SDS011;55187;49.496;6.010;2022-09-19T02:35:01;3.20;;;2.05;;
55078;SDS011;55187;49.496;6.010;2022-09-19T02:37:39;3.75;;;2.38;;
55078;SDS011;55187;49.496;6.010;2022-09-19T02:40:19;3.17;;;1.40;;
55078;SDS011;55187;49.496;6.010;2022-09-19T02:42:55;5.95;;;2.35;;
55078;SDS011;55187;49.496;6.010;2022-09-19T02:45:34;3.90;;;1.90;;
55078;SDS011;55187;49.496;6.010;2022-09-19T02:51:01;2.95;;;2.17;;
55078;SDS011;55187;49.496;6.010;2022-09-19T02:53:40;5.18;;;2.13;;
55078;SDS011;55187;49.496;6.010;2022-09-19T02:56:15;5.57;;;3.13;;
55078;SDS011;55187;49.496;6.010;2022-09-19T02:58:47;6.88;;;3.17;;
55078;SDS011;55187;49.496;6.010;2022-09-19T03:01:23;6.38;;;3.00;;
55078;SDS011;55187;49.496;6.010;2022-09-19T03:03:54;1.50;;;1.05;;
55078;SDS011;55187;49.496;6.010;2022-09-19T03:06:37;2.10;;;1.88;;
55078;SDS011;55187;49.496;6.010;2022-09-19T03:09:09;9.53;;;2.50;;
55078;SDS011;55187;49.496;6.010;2022-09-19T03:11:39;2.95;;;2.25;;
55078;SDS011;55187;49.496;6.010;2022-09-19T03:14:15;5.70;;;3.15;;
55078;SDS011;55187;49.496;6.010;2022-09-19T03:16:43;8.10;;;2.78;;
55078;SDS011;55187;49.496;6.010;2022-09-19T03:19:14;9.30;;;2.90;;
55078;SDS011;55187;49.496;6.010;2022-09-19T03:21:41;5.60;;;2.75;;
55078;SDS011;55187;49.496;6.010;2022-09-19T03:24:09;5.15;;;2.33;;
55078;SDS011;55187;49.496;6.010;2022-09-19T03:26:37;15.10;;;2.28;;
55078;SDS011;55187;49.496;6.010;2022-09-19T03:29:07;5.03;;;2.97;;
55078;SDS011;55187;49.496;6.010;2022-09-19T03:31:50;3.15;;;2.40;;
55078;SDS011;55187;49.496;6.010;2022-09-19T03:34:19;8.13;;;2.80;;
55078;SDS011;55187;49.496;6.010;2022-09-19T03:36:48;4.80;;;1.90;;
55078;SDS011;55187;49.496;6.010;2022-09-19T03:39:20;8.98;;;2.13;;
55078;SDS011;55187;49.496;6.010;2022-09-19T03:41:48;4.38;;;2.63;;
55078;SDS011;55187;49.496;6.010;2022-09-19T03:44:16;3.75;;;2.28;;
55078;SDS011;55187;49.496;6.010;2022-09-19T03:46:45;4.32;;;2.40;;
55078;SDS011;55187;49.496;6.010;2022-09-19T03:49:13;5.28;;;2.45;;
55078;SDS011;55187;49.496;6.010;2022-09-19T03:51:40;7.32;;;2.47;;
55078;SDS011;55187;49.496;6.010;2022-09-19T03:54:08;4.97;;;2.85;;
55078;SDS011;55187;49.496;6.010;2022-09-19T03:56:40;6.90;;;2.63;;
55078;SDS011;55187;49.496;6.010;2022-09-19T03:59:07;5.00;;;2.25;;
55078;SDS011;55187;49.496;6.010;2022-09-19T04:01:37;14.70;;;3.85;;
55078;SDS011;55187;49.496;6.010;2022-09-19T04:04:04;5.63;;;2.60;;
55078;SDS011;55187;49.496;6.010;2022-09-19T04:06:32;10.55;;;2.83;;
55078;SDS011;55187;49.496;6.010;2022-09-19T04:08:59;7.55;;;2.50;;
55078;SDS011;55187;49.496;6.010;2022-09-19T04:11:28;9.27;;;2.55;;
55078;SDS011;55187;49.496;6.010;2022-09-19T04:13:55;6.55;;;3.03;;
55078;SDS011;55187;49.496;6.010;2022-09-19T04:16:22;4.97;;;2.88;;
55078;SDS011;55187;49.496;6.010;2022-09-19T04:18:50;5.95;;;3.25;;
55078;SDS011;55187;49.496;6.010;2022-09-19T04:21:36;3.75;;;2.88;;
55078;SDS011;55187;49.496;6.010;2022-09-19T04:24:23;3.50;;;2.20;;
55078;SDS011;55187;49.496;6.010;2022-09-19T04:27:03;9.35;;;2.17;;
55078;SDS011;55187;49.496;6.010;2022-09-19T04:29:33;3.75;;;2.30;;
55078;SDS011;55187;49.496;6.010;2022-09-19T04:32:00;9.20;;;2.28;;
55078;SDS011;55187;49.496;6.010;2022-09-19T04:34:29;13.10;;;3.35;;
55078;SDS011;55187;49.496;6.010;2022-09-19T04:36:57;5.45;;;1.92;;
55078;SDS011;55187;49.496;6.010;2022-09-19T04:39:28;14.93;;;2.47;;
55078;SDS011;55187;49.496;6.010;2022-09-19T04:41:56;3.60;;;2.35;;
55078;SDS011;55187;49.496;6.010;2022-09-19T04:44:24;5.95;;;2.70;;
55078;SDS011;55187;49.496;6.010;2022-09-19T04:47:02;8.18;;;3.25;;
55078;SDS011;55187;49.496;6.010;2022-09-19T04:49:32;5.65;;;2.78;;
55078;SDS011;55187;49.496;6.010;2022-09-19T04:52:06;21.23;;;3.63;;
55078;SDS011;55187;49.496;6.010;2022-09-19T04:54:35;6.97;;;3.95;;
55078;SDS011;55187;49.496;6.010;2022-09-19T04:57:05;7.57;;;2.83;;
55078;SDS011;55187;49.496;6.010;2022-09-19T04:59:34;8.45;;;3.42;;
55078;SDS011;55187;49.496;6.010;2022-09-19T05:02:03;12.43;;;4.13;;
55078;SDS011;55187;49.496;6.010;2022-09-19T05:04:33;15.10;;;3.53;;
55078;SDS011;55187;49.496;6.010;2022-09-19T05:06:59;10.48;;;4.45;;
55078;SDS011;55187;49.496;6.010;2022-09-19T05:09:26;12.93;;;3.75;;
55078;SDS011;55187;49.496;6.010;2022-09-19T05:12:02;9.13;;;4.13;;
55078;SDS011;55187;49.496;6.010;2022-09-19T05:14:32;9.35;;;3.03;;
55078;SDS011;55187;49.496;6.010;2022-09-19T05:17:00;5.38;;;3.05;;
55078;SDS011;55187;49.496;6.010;2022-09-19T05:19:27;5.85;;;3.83;;
55078;SDS011;55187;49.496;6.010;2022-09-19T05:21:55;6.13;;;3.35;;
55078;SDS011;55187;49.496;6.010;2022-09-19T05:24:23;6.13;;;2.15;;
55078;SDS011;55187;49.496;6.010;2022-09-19T05:26:49;5.00;;;2.78;;
55078;SDS011;55187;49.496;6.010;2022-09-19T05:29:17;8.93;;;2.85;;
55078;SDS011;55187;49.496;6.010;2022-09-19T05:31:54;5.93;;;2.92;;
55078;SDS011;55187;49.496;6.010;2022-09-19T05:34:38;4.53;;;2.40;;
55078;SDS011;55187;49.496;6.010;2022-09-19T05:37:05;5.65;;;2.85;;
55078;SDS011;55187;49.496;6.010;2022-09-19T05:39:35;5.28;;;2.75;;
55078;SDS011;55187;49.496;6.010;2022-09-19T05:42:22;4.95;;;2.63;;
55078;SDS011;55187;49.496;6.010;2022-09-19T05:44:48;6.03;;;3.17;;
55078;SDS011;55187;49.496;6.010;2022-09-19T05:47:14;6.22;;;2.88;;
55078;SDS011;55187;49.496;6.010;2022-09-19T05:49:41;10.90;;;3.17;;
55078;SDS011;55187;49.496;6.010;2022-09-19T05:52:07;6.63;;;3.17;;
55078;SDS011;55187;49.496;6.010;2022-09-19T05:54:46;5.38;;;2.70;;
55078;SDS011;55187;49.496;6.010;2022-09-19T05:57:32;10.02;;;3.45;;
55078;SDS011;55187;49.496;6.010;2022-09-19T06:00:00;10.52;;;3.47;;
55078;SDS011;55187;49.496;6.010;2022-09-19T06:02:27;5.63;;;2.28;;
55078;SDS011;55187;49.496;6.010;2022-09-19T06:04:59;8.02;;;2.83;;
55078;SDS011;55187;49.496;6.010;2022-09-19T06:07:25;11.35;;;2.72;;
55078;SDS011;55187;49.496;6.010;2022-09-19T06:09:52;5.25;;;2.97;;
55078;SDS011;55187;49.496;6.010;2022-09-19T06:12:20;32.83;;;3.92;;
55078;SDS011;55187;49.496;6.010;2022-09-19T06:14:49;7.20;;;2.90;;
55078;SDS011;55187;49.496;6.010;2022-09-19T06:17:18;10.38;;;2.67;;
55078;SDS011;55187;49.496;6.010;2022-09-19T06:19:57;12.48;;;3.33;;
55078;SDS011;55187;49.496;6.010;2022-09-19T06:22:36;5.72;;;2.85;;
55078;SDS011;55187;49.496;6.010;2022-09-19T06:25:03;6.25;;;3.10;;
55078;SDS011;55187;49.496;6.010;2022-09-19T06:27:31;5.57;;;2.83;;
55078;SDS011;55187;49.496;6.010;2022-09-19T06:29:58;6.28;;;3.25;;
55078;SDS011;55187;49.496;6.010;2022-09-19T06:32:29;7.05;;;3.13;;
55078;SDS011;55187;49.496;6.010;2022-09-19T06:35:08;6.22;;;2.67;;
55078;SDS011;55187;49.496;6.010;2022-09-19T06:37:36;8.82;;;2.78;;
55078;SDS011;55187;49.496;6.010;2022-09-19T06:40:04;10.15;;;3.35;;
55078;SDS011;55187;49.496;6.010;2022-09-19T06:42:43;12.93;;;3.65;;
55078;SDS011;55187;49.496;6.010;2022-09-19T06:45:22;6.95;;;3.13;;
55078;SDS011;55187;49.496;6.010;2022-09-19T06:48:01;9.85;;;4.15;;
55078;SDS011;55187;49.496;6.010;2022-09-19T06:50:39;5.80;;;3.20;;
55078;SDS011;55187;49.496;6.010;2022-09-19T06:53:11;5.55;;;3.40;;
55078;SDS011;55187;49.496;6.010;2022-09-19T06:55:37;4.10;;;2.60;;
55078;SDS011;55187;49.496;6.010;2022-09-19T06:58:09;8.02;;;2.78;;
55078;SDS011;55187;49.496;6.010;2022-09-19T07:00:37;14.65;;;3.20;;
55078;SDS011;55187;49.496;6.010;2022-09-19T07:03:09;7.03;;;3.50;;
55078;SDS011;55187;49.496;6.010;2022-09-19T07:05:43;11.23;;;3.40;;
55078;SDS011;55187;49.496;6.010;2022-09-19T07:08:22;7.47;;;2.72;;
55078;SDS011;55187;49.496;6.010;2022-09-19T07:10:54;10.95;;;3.75;;
55078;SDS011;55187;49.496;6.010;2022-09-19T07:13:22;12.68;;;3.65;;
55078;SDS011;55187;49.496;6.010;2022-09-19T07:15:59;6.55;;;3.08;;
55078;SDS011;55187;49.496;6.010;2022-09-19T07:18:30;8.10;;;4.03;;
55078;SDS011;55187;49.496;6.010;2022-09-19T07:20:59;9.10;;;3.08;;
55078;SDS011;55187;49.496;6.010;2022-09-19T07:23:32;7.85;;;5.07;;
55078;SDS011;55187;49.496;6.010;2022-09-19T07:26:05;219.85;;;23.90;;
55078;SDS011;55187;49.496;6.010;2022-09-19T07:28:34;692.25;;;68.90;;
55078;SDS011;55187;49.496;6.010;2022-09-19T07:31:02;1401.65;;;148.57;;
55078;SDS011;55187;49.496;6.010;2022-09-19T07:33:32;1552.80;;;165.85;;
55078;SDS011;55187;49.496;6.010;2022-09-19T07:35:59;1713.90;;;207.80;;
55078;SDS011;55187;49.496;6.010;2022-09-19T07:38:30;61.85;;;10.07;;
55078;SDS011;55187;49.496;6.010;2022-09-19T07:41:06;19.45;;;8.68;;
55078;SDS011;55187;49.496;6.010;2022-09-19T07:43:47;17.67;;;5.65;;
55078;SDS011;55187;49.496;6.010;2022-09-19T07:46:26;6.13;;;3.28;;
55078;SDS011;55187;49.496;6.010;2022-09-19T07:49:05;11.88;;;3.70;;
55078;SDS011;55187;49.496;6.010;2022-09-19T07:51:44;11.20;;;3.88;;
55078;SDS011;55187;49.496;6.010;2022-09-19T07:54:12;7.55;;;3.17;;
55078;SDS011;55187;49.496;6.010;2022-09-19T07:56:39;5.75;;;2.83;;
55078;SDS011;55187;49.496;6.010;2022-09-19T07:59:07;6.78;;;3.08;;
55078;SDS011;55187;49.496;6.010;2022-09-19T08:01:45;5.72;;;2.60;;
55078;SDS011;55187;49.496;6.010;2022-09-19T08:04:16;8.18;;;2.72;;
55078;SDS011;55187;49.496;6.010;2022-09-19T08:06:49;7.35;;;3.17;;
55078;SDS011;55187;49.496;6.010;2022-09-19T08:09:18;6.63;;;2.30;;
55078;SDS011;55187;49.496;6.010;2022-09-19T08:12:05;5.70;;;2.50;;
55078;SDS011;55187;49.496;6.010;2022-09-19T08:14:38;6.13;;;2.25;;
55078;SDS011;55187;49.496;6.010;2022-09-19T08:17:05;7.25;;;2.03;;
55078;SDS011;55187;49.496;6.010;2022-09-19T08:19:32;7.13;;;2.40;;
55078;SDS011;55187;49.496;6.010;2022-09-19T08:22:00;8.15;;;1.75;;
55078;SDS011;55187;49.496;6.010;2022-09-19T08:24:32;2.57;;;1.70;;
55078;SDS011;55187;49.496;6.010;2022-09-19T08:27:05;4.63;;;1.77;;
55078;SDS011;55187;49.496;6.010;2022-09-19T08:29:32;12.82;;;2.08;;
55078;SDS011;55187;49.496;6.010;2022-09-19T08:32:07;3.00;;;1.42;;
55078;SDS011;55187;49.496;6.010;2022-09-19T08:34:35;4.35;;;1.80;;
55078;SDS011;55187;49.496;6.010;2022-09-19T08:37:03;5.82;;;1.45;;
55078;SDS011;55187;49.496;6.010;2022-09-19T08:39:33;8.98;;;1.92;;
55078;SDS011;55187;49.496;6.010;2022-09-19T08:44:59;7.13;;;1.40;;
55078;SDS011;55187;49.496;6.010;2022-09-19T08:47:32;5.55;;;1.83;;
55078;SDS011;55187;49.496;6.010;2022-09-19T08:50:02;4.78;;;1.88;;
55078;SDS011;55187;49.496;6.010;2022-09-19T08:52:43;9.38;;;3.13;;
55078;SDS011;55187;49.496;6.010;2022-09-19T08:55:17;5.47;;;1.63;;
55078;SDS011;55187;49.496;6.010;2022-09-19T09:00:21;8.13;;;1.88;;
55078;SDS011;55187;49.496;6.010;2022-09-19T09:02:54;5.10;;;2.00;;
55078;SDS011;55187;49.496;6.010;2022-09-19T09:11:39;7.53;;;1.08;;
55078;SDS011;55187;49.496;6.010;2022-09-19T09:14:21;5.20;;;1.52;;
55078;SDS011;55187;49.496;6.010;2022-09-19T09:20:06;8.40;;;1.50;;
55078;SDS011;55187;49.496;6.010;2022-09-19T09:23:00;5.10;;;1.75;;
55078;SDS011;55187;49.496;6.010;2022-09-19T09:25:49;9.10;;;1.95;;
55078;SDS011;55187;49.496;6.010;2022-09-19T09:28:28;6.32;;;1.92;;
55078;SDS011;55187;49.496;6.010;2022-09-19T09:31:27;4.10;;;2.30;;
55078;SDS011;55187;49.496;6.010;2022-09-19T09:34:16;7.70;;;2.40;;
55078;SDS011;55187;49.496;6.010;2022-09-19T09:36:50;6.90;;;2.05;;
55078;SDS011;55187;49.496;6.010;2022-09-19T09:39:27;7.55;;;2.30;;
55078;SDS011;55187;49.496;6.010;2022-09-19T09:42:34;9.52;;;1.95;;
55078;SDS011;55187;49.496;6.010;2022-09-19T09:45:22;9.38;;;1.45;;
55078;SDS011;55187;49.496;6.010;2022-09-19T09:48:12;3.08;;;1.08;;
55078;SDS011;55187;49.496;6.010;2022-09-19T09:50:54;4.13;;;1.35;;
55078;SDS011;55187;49.496;6.010;2022-09-19T09:56:59;5.35;;;1.10;;
55078;SDS011;55187;49.496;6.010;2022-09-19T09:59:39;7.15;;;1.17;;
55078;SDS011;55187;49.496;6.010;2022-09-19T10:02:39;6.60;;;1.48;;
55078;SDS011;55187;49.496;6.010;2022-09-19T10:05:36;6.43;;;1.20;;
55078;SDS011;55187;49.496;6.010;2022-09-19T10:08:26;9.02;;;1.48;;
55078;SDS011;55187;49.496;6.010;2022-09-19T10:11:18;2.90;;;1.60;;
55078;SDS011;55187;49.496;6.010;2022-09-19T10:13:52;5.28;;;1.25;;
55078;SDS011;55187;49.496;6.010;2022-09-19T10:16:32;6.10;;;1.25;;
55078;SDS011;55187;49.496;6.010;2022-09-19T10:19:13;5.67;;;1.10;;
55078;SDS011;55187;49.496;6.010;2022-09-19T10:21:52;2.72;;;1.00;;
55078;SDS011;55187;49.496;6.010;2022-09-19T10:27:19;6.25;;;1.80;;
55078;SDS011;55187;49.496;6.010;2022-09-19T10:32:22;4.68;;;0.95;;
55078;SDS011;55187;49.496;6.010;2022-09-19T10:37:48;3.70;;;1.88;;
55078;SDS011;55187;49.496;6.010;2022-09-19T10:40:18;6.10;;;1.38;;
55078;SDS011;55187;49.496;6.010;2022-09-19T10:42:45;4.43;;;1.15;;
55078;SDS011;55187;49.496;6.010;2022-09-19T10:45:21;4.75;;;0.93;;
55078;SDS011;55187;49.496;6.010;2022-09-19T10:47:53;3.60;;;1.13;;
55078;SDS011;55187;49.496;6.010;2022-09-19T10:50:24;4.00;;;1.13;;
55078;SDS011;55187;49.496;6.010;2022-09-19T10:53:01;6.03;;;1.42;;
55078;SDS011;55187;49.496;6.010;2022-09-19T10:55:30;5.05;;;1.42;;
55078;SDS011;55187;49.496;6.010;2022-09-19T10:58:06;3.03;;;1.17;;
55078;SDS011;55187;49.496;6.010;2022-09-19T11:03:35;5.68;;;1.23;;
55078;SDS011;55187;49.496;6.010;2022-09-19T11:06:08;9.88;;;2.53;;
55078;SDS011;55187;49.496;6.010;2022-09-19T11:08:44;5.10;;;1.98;;
55078;SDS011;55187;49.496;6.010;2022-09-19T11:11:27;3.03;;;1.23;;
55078;SDS011;55187;49.496;6.010;2022-09-19T11:17:10;10.07;;;1.88;;
55078;SDS011;55187;49.496;6.010;2022-09-19T11:20:08;7.72;;;1.38;;
55078;SDS011;55187;49.496;6.010;2022-09-19T11:23:15;3.60;;;0.65;;
55078;SDS011;55187;49.496;6.010;2022-09-19T11:26:09;6.93;;;0.70;;
55078;SDS011;55187;49.496;6.010;2022-09-19T11:31:55;6.90;;;2.30;;
55078;SDS011;55187;49.496;6.010;2022-09-19T11:34:52;6.10;;;1.17;;
55078;SDS011;55187;49.496;6.010;2022-09-19T11:37:28;3.87;;;1.50;;
55078;SDS011;55187;49.496;6.010;2022-09-19T11:45:19;2.57;;;2.13;;
55078;SDS011;55187;49.496;6.010;2022-09-19T11:47:55;4.28;;;0.98;;
55078;SDS011;55187;49.496;6.010;2022-09-19T11:53:35;9.88;;;1.92;;
55078;SDS011;55187;49.496;6.010;2022-09-19T11:58:53;6.60;;;1.23;;
55078;SDS011;55187;49.496;6.010;2022-09-19T12:01:29;7.43;;;2.13;;
55078;SDS011;55187;49.496;6.010;2022-09-19T12:09:57;4.97;;;1.83;;
55078;SDS011;55187;49.496;6.010;2022-09-19T12:12:31;5.45;;;1.30;;
55078;SDS011;55187;49.496;6.010;2022-09-19T12:15:16;14.25;;;1.40;;
55078;SDS011;55187;49.496;6.010;2022-09-19T12:17:53;3.22;;;1.25;;
55078;SDS011;55187;49.496;6.010;2022-09-19T12:20:35;7.03;;;1.40;;
55078;SDS011;55187;49.496;6.010;2022-09-19T12:26:03;1.85;;;1.00;;
55078;SDS011;55187;49.496;6.010;2022-09-19T12:28:33;2.65;;;1.77;;
55078;SDS011;55187;49.496;6.010;2022-09-19T12:31:08;10.38;;;1.60;;
55078;SDS011;55187;49.496;6.010;2022-09-19T12:33:51;6.00;;;1.40;;
55078;SDS011;55187;49.496;6.010;2022-09-19T12:36:28;6.20;;;1.88;;
55078;SDS011;55187;49.496;6.010;2022-09-19T12:39:01;2.97;;;1.40;;
55078;SDS011;55187;49.496;6.010;2022-09-19T12:41:41;3.20;;;1.35;;
55078;SDS011;55187;49.496;6.010;2022-09-19T12:47:34;5.82;;;1.63;;
55078;SDS011;55187;49.496;6.010;2022-09-19T12:50:24;4.57;;;1.70;;
55078;SDS011;55187;49.496;6.010;2022-09-19T12:53:04;3.08;;;1.35;;
55078;SDS011;55187;49.496;6.010;2022-09-19T12:55:39;5.78;;;1.60;;
55078;SDS011;55187;49.496;6.010;2022-09-19T12:58:18;3.80;;;1.40;;
55078;SDS011;55187;49.496;6.010;2022-09-19T13:01:01;3.28;;;1.60;;
55078;SDS011;55187;49.496;6.010;2022-09-19T13:03:42;5.15;;;2.20;;
55078;SDS011;55187;49.496;6.010;2022-09-19T13:06:16;4.15;;;1.60;;
55078;SDS011;55187;49.496;6.010;2022-09-19T13:08:50;6.17;;;2.13;;
55078;SDS011;55187;49.496;6.010;2022-09-19T13:13:58;10.07;;;1.70;;
55078;SDS011;55187;49.496;6.010;2022-09-19T13:16:39;4.53;;;2.55;;
55078;SDS011;55187;49.496;6.010;2022-09-19T13:19:29;3.67;;;1.90;;
55078;SDS011;55187;49.496;6.010;2022-09-19T13:22:05;2.90;;;1.30;;
55078;SDS011;55187;49.496;6.010;2022-09-19T13:24:37;6.85;;;1.13;;
55078;SDS011;55187;49.496;6.010;2022-09-19T13:27:23;6.50;;;1.55;;
55078;SDS011;55187;49.496;6.010;2022-09-19T13:29:51;6.28;;;2.10;;
55078;SDS011;55187;49.496;6.010;2022-09-19T13:40:17;4.00;;;1.35;;
55078;SDS011;55187;49.496;6.010;2022-09-19T13:43:04;5.13;;;1.10;;
55078;SDS011;55187;49.496;6.010;2022-09-19T13:45:59;3.85;;;1.40;;
55078;SDS011;55187;49.496;6.010;2022-09-19T13:48:39;5.80;;;1.38;;
55078;SDS011;55187;49.496;6.010;2022-09-19T13:51:20;3.33;;;0.90;;
55078;SDS011;55187;49.496;6.010;2022-09-19T13:56:41;4.40;;;1.52;;
55078;SDS011;55187;49.496;6.010;2022-09-19T14:02:00;4.13;;;1.95;;
55078;SDS011;55187;49.496;6.010;2022-09-19T14:04:41;5.82;;;1.45;;
55078;SDS011;55187;49.496;6.010;2022-09-19T14:07:23;9.00;;;1.63;;
55078;SDS011;55187;49.496;6.010;2022-09-19T14:24:34;7.90;;;1.30;;
55078;SDS011;55187;49.496;6.010;2022-09-19T14:27:06;2.58;;;1.85;;
55078;SDS011;55187;49.496;6.010;2022-09-19T14:29:45;5.43;;;1.92;;
55078;SDS011;55187;49.496;6.010;2022-09-19T14:32:30;4.50;;;0.90;;
55078;SDS011;55187;49.496;6.010;2022-09-19T14:35:21;3.78;;;1.20;;
55078;SDS011;55187;49.496;6.010;2022-09-19T14:40:52;5.30;;;1.25;;
55078;SDS011;55187;49.496;6.010;2022-09-19T14:43:38;3.55;;;1.25;;
55078;SDS011;55187;49.496;6.010;2022-09-19T14:46:37;4.45;;;1.17;;
55078;SDS011;55187;49.496;6.010;2022-09-19T14:49:18;3.58;;;1.10;;
55078;SDS011;55187;49.496;6.010;2022-09-19T14:54:48;8.00;;;2.05;;
55078;SDS011;55187;49.496;6.010;2022-09-19T14:57:26;3.42;;;1.30;;
55078;SDS011;55187;49.496;6.010;2022-09-19T14:59:52;5.25;;;1.52;;
55078;SDS011;55187;49.496;6.010;2022-09-19T15:02:29;5.07;;;1.67;;
55078;SDS011;55187;49.496;6.010;2022-09-19T15:05:16;5.57;;;0.75;;
55078;SDS011;55187;49.496;6.010;2022-09-19T15:07:46;5.10;;;0.95;;
55078;SDS011;55187;49.496;6.010;2022-09-19T15:15:44;0.82;;;0.45;;
55078;SDS011;55187;49.496;6.010;2022-09-19T15:18:19;4.25;;;1.40;;
55078;SDS011;55187;49.496;6.010;2022-09-19T15:20:59;2.38;;;1.25;;
55078;SDS011;55187;49.496;6.010;2022-09-19T15:23:28;3.35;;;1.00;;
55078;SDS011;55187;49.496;6.010;2022-09-19T15:25:58;2.75;;;1.40;;
55078;SDS011;55187;49.496;6.010;2022-09-19T15:28:27;3.17;;;0.80;;
55078;SDS011;55187;49.496;6.010;2022-09-19T15:30:57;5.28;;;1.25;;
55078;SDS011;55187;49.496;6.010;2022-09-19T15:33:27;1.30;;;0.93;;
55078;SDS011;55187;49.496;6.010;2022-09-19T15:35:55;12.35;;;3.63;;
55078;SDS011;55187;49.496;6.010;2022-09-19T15:38:25;2.25;;;1.00;;
55078;SDS011;55187;49.496;6.010;2022-09-19T15:40:57;7.75;;;1.35;;
55078;SDS011;55187;49.496;6.010;2022-09-19T15:43:25;2.45;;;0.90;;
55078;SDS011;55187;49.496;6.010;2022-09-19T15:45:57;1.80;;;0.80;;
55078;SDS011;55187;49.496;6.010;2022-09-19T15:48:34;10.20;;;1.25;;
55078;SDS011;55187;49.496;6.010;2022-09-19T15:51:23;6.50;;;2.72;;
55078;SDS011;55187;49.496;6.010;2022-09-19T15:53:53;9.85;;;2.33;;
55078;SDS011;55187;49.496;6.010;2022-09-19T15:56:23;24.95;;;1.83;;
55078;SDS011;55187;49.496;6.010;2022-09-19T15:58:51;4.30;;;1.80;;
55078;SDS011;55187;49.496;6.010;2022-09-19T16:01:22;8.43;;;0.98;;
55078;SDS011;55187;49.496;6.010;2022-09-19T16:03:55;3.67;;;1.13;;
55078;SDS011;55187;49.496;6.010;2022-09-19T16:06:29;4.67;;;1.20;;
55078;SDS011;55187;49.496;6.010;2022-09-19T16:09:11;2.30;;;0.90;;
55078;SDS011;55187;49.496;6.010;2022-09-19T16:11:41;1.25;;;0.68;;
55078;SDS011;55187;49.496;6.010;2022-09-19T16:14:18;1.88;;;1.40;;
55078;SDS011;55187;49.496;6.010;2022-09-19T16:16:53;4.07;;;0.93;;
55078;SDS011;55187;49.496;6.010;2022-09-19T16:19:21;4.13;;;1.05;;
55078;SDS011;55187;49.496;6.010;2022-09-19T16:22:06;2.05;;;0.73;;
55078;SDS011;55187;49.496;6.010;2022-09-19T16:24:37;4.93;;;1.20;;
55078;SDS011;55187;49.496;6.010;2022-09-19T16:27:09;6.90;;;1.48;;
55078;SDS011;55187;49.496;6.010;2022-09-19T16:29:40;4.15;;;0.93;;
55078;SDS011;55187;49.496;6.010;2022-09-19T16:32:14;4.05;;;0.80;;
55078;SDS011;55187;49.496;6.010;2022-09-19T16:34:49;0.90;;;0.63;;
55078;SDS011;55187;49.496;6.010;2022-09-19T16:42:55;5.30;;;1.45;;
55078;SDS011;55187;49.496;6.010;2022-09-19T16:48:02;4.15;;;1.15;;
55078;SDS011;55187;49.496;6.010;2022-09-19T16:50:29;3.05;;;0.80;;
55078;SDS011;55187;49.496;6.010;2022-09-19T16:53:03;4.10;;;1.40;;
55078;SDS011;55187;49.496;6.010;2022-09-19T16:55:38;9.57;;;1.38;;
55078;SDS011;55187;49.496;6.010;2022-09-19T16:58:09;2.83;;;1.08;;
55078;SDS011;55187;49.496;6.010;2022-09-19T17:00:40;4.13;;;0.83;;
55078;SDS011;55187;49.496;6.010;2022-09-19T17:03:10;1.63;;;0.80;;
55078;SDS011;55187;49.496;6.010;2022-09-19T17:05:38;6.47;;;2.22;;
55078;SDS011;55187;49.496;6.010;2022-09-19T17:08:07;2.65;;;1.15;;
55078;SDS011;55187;49.496;6.010;2022-09-19T17:10:34;4.63;;;0.88;;
55078;SDS011;55187;49.496;6.010;2022-09-19T17:13:01;9.20;;;1.50;;
55078;SDS011;55187;49.496;6.010;2022-09-19T17:15:31;2.85;;;1.15;;
55078;SDS011;55187;49.496;6.010;2022-09-19T17:20:38;2.58;;;1.17;;
55078;SDS011;55187;49.496;6.010;2022-09-19T17:23:09;3.55;;;1.10;;
55078;SDS011;55187;49.496;6.010;2022-09-19T17:25:41;3.05;;;1.20;;
55078;SDS011;55187;49.496;6.010;2022-09-19T17:28:12;5.00;;;1.10;;
55078;SDS011;55187;49.496;6.010;2022-09-19T17:30:40;3.30;;;1.17;;
55078;SDS011;55187;49.496;6.010;2022-09-19T17:33:10;1.95;;;0.93;;
55078;SDS011;55187;49.496;6.010;2022-09-19T17:35:38;1.90;;;0.88;;
55078;SDS011;55187;49.496;6.010;2022-09-19T17:38:05;3.60;;;1.08;;